createdAt,value
2023-05-22T00:01:29.712Z,18.40
2023-05-22T00:03:56.849Z,18.40
2023-05-22T00:06:24.215Z,18.40
2023-05-22T00:08:51.340Z,18.40
2023-05-22T00:11:18.412Z,18.40
2023-05-22T00:13:46.012Z,18.40
2023-05-22T00:16:13.200Z,18.40
2023-05-22T00:18:44.200Z,18.40
2023-05-22T00:21:11.460Z,18.40
2023-05-22T00:23:38.498Z,18.46
2023-05-22T00:26:05.573Z,18.50
2023-05-22T00:28:32.685Z,18.60
2023-05-22T00:30:59.864Z,18.60
2023-05-22T00:33:26.992Z,18.68
2023-05-22T00:35:54.113Z,18.70
2023-05-22T00:38:32.606Z,18.70
2023-05-22T00:41:01.326Z,18.70
2023-05-22T00:43:28.810Z,18.70
2023-05-22T00:45:56.299Z,18.76
2023-05-22T00:48:23.953Z,18.80
2023-05-22T00:50:53.025Z,18.80
2023-05-22T00:53:22.206Z,18.80
2023-05-22T00:55:49.766Z,18.80
2023-05-22T00:58:18.088Z,18.84
2023-05-22T01:00:46.287Z,18.84
2023-05-22T01:03:14.699Z,18.90
2023-05-22T01:05:43.056Z,18.82
2023-05-22T01:08:10.922Z,18.80
2023-05-22T01:10:39.844Z,18.80
2023-05-22T01:13:58.399Z,18.78
2023-05-22T01:16:46.039Z,18.70
2023-05-22T01:19:53.390Z,18.70
2023-05-22T01:22:57.734Z,18.70
2023-05-22T01:25:56.742Z,18.78
2023-05-22T01:28:41.807Z,18.76
2023-05-22T01:31:13.533Z,18.74
2023-05-22T01:33:47.990Z,18.72
2023-05-22T01:36:19.810Z,18.80
2023-05-22T01:38:47.432Z,18.80
2023-05-22T01:41:15.772Z,18.80
2023-05-22T01:43:43.157Z,18.90
2023-05-22T01:46:10.495Z,18.90
2023-05-22T01:48:37.620Z,18.90
2023-05-22T01:51:31.991Z,18.88
2023-05-22T01:54:41.793Z,18.80
2023-05-22T01:57:38.459Z,18.80
2023-05-22T02:00:15.893Z,18.80
2023-05-22T02:02:50.956Z,18.80
2023-05-22T02:05:21.136Z,18.80
2023-05-22T02:07:49.869Z,18.80
2023-05-22T02:10:19.028Z,18.80
2023-05-22T02:12:46.331Z,18.72
2023-05-22T02:15:14.097Z,18.72
2023-05-22T02:17:41.978Z,18.72
2023-05-22T02:20:14.684Z,18.70
2023-05-22T02:22:44.737Z,18.70
2023-05-22T02:25:16.333Z,18.70
2023-05-22T02:27:45.484Z,18.70
2023-05-22T02:30:13.994Z,18.70
2023-05-22T02:32:43.124Z,18.70
2023-05-22T02:35:10.557Z,18.70
2023-05-22T02:37:38.226Z,18.70
2023-05-22T02:40:05.931Z,18.70
2023-05-22T02:42:33.718Z,18.70
2023-05-22T02:45:01.569Z,18.70
2023-05-22T02:47:28.695Z,18.70
2023-05-22T02:49:57.436Z,18.70
2023-05-22T02:52:24.795Z,18.66
2023-05-22T02:54:51.905Z,18.70
2023-05-22T02:57:19.221Z,18.64
2023-05-22T02:59:46.453Z,18.64
2023-05-22T03:02:14.900Z,18.68
2023-05-22T03:04:42.030Z,18.68
2023-05-22T03:07:09.546Z,18.68
2023-05-22T03:09:36.794Z,18.64
2023-05-22T03:12:07.111Z,18.60
2023-05-22T03:14:34.892Z,18.60
2023-05-22T03:17:03.183Z,18.60
2023-05-22T03:19:30.487Z,18.60
2023-05-22T03:21:57.970Z,18.60
2023-05-22T03:24:25.644Z,18.60
2023-05-22T03:26:52.768Z,18.60
2023-05-22T03:29:25.766Z,18.62
2023-05-22T03:31:54.256Z,18.60
2023-05-22T03:34:22.173Z,18.68
2023-05-22T03:36:49.390Z,18.70
2023-05-22T03:39:16.858Z,18.64
2023-05-22T03:42:05.642Z,18.60
2023-05-22T03:44:32.888Z,18.66
2023-05-22T03:47:00.908Z,18.70
2023-05-22T03:49:27.981Z,18.70
2023-05-22T03:51:55.128Z,18.70
2023-05-22T03:54:22.353Z,18.70
2023-05-22T03:56:50.154Z,18.74
2023-05-22T03:59:17.303Z,18.78
2023-05-22T04:01:46.039Z,18.78
2023-05-22T04:04:13.086Z,18.80
2023-05-22T04:06:43.706Z,18.80
2023-05-22T04:09:15.220Z,18.80
2023-05-22T04:11:42.543Z,18.82
2023-05-22T04:14:10.047Z,18.88
2023-05-22T04:16:37.245Z,18.90
2023-05-22T04:19:05.414Z,18.90
2023-05-22T04:21:35.417Z,18.90
2023-05-22T04:24:06.522Z,18.90
2023-05-22T04:26:33.823Z,18.90
2023-05-22T04:29:01.847Z,18.90
2023-05-22T04:31:29.981Z,18.90
2023-05-22T04:33:59.603Z,18.90
2023-05-22T04:36:27.408Z,18.90
2023-05-22T04:38:55.132Z,18.90
2023-05-22T04:41:25.997Z,18.86
2023-05-22T04:43:53.473Z,18.90
2023-05-22T04:46:20.774Z,18.90
2023-05-22T04:48:48.082Z,18.90
2023-05-22T04:51:16.104Z,18.94
2023-05-22T04:53:45.764Z,19.00
2023-05-22T04:56:14.696Z,19.00
2023-05-22T04:58:43.880Z,19.00
2023-05-22T05:01:11.313Z,19.02
2023-05-22T05:03:39.321Z,19.08
2023-05-22T05:06:07.878Z,19.10
2023-05-22T05:08:35.044Z,19.10
2023-05-22T05:11:02.216Z,19.10
2023-05-22T05:13:29.378Z,19.10
2023-05-22T05:15:58.793Z,19.18
2023-05-22T05:18:27.630Z,19.20
2023-05-22T05:20:54.955Z,19.20
2023-05-22T05:23:22.378Z,19.24
2023-05-22T05:25:49.509Z,19.30
2023-05-22T05:28:16.689Z,19.30
2023-05-22T05:30:43.969Z,19.30
2023-05-22T05:33:30.437Z,19.36
2023-05-22T05:36:12.764Z,19.30
2023-05-22T05:38:40.848Z,19.34
2023-05-22T05:41:08.106Z,19.40
2023-05-22T05:43:36.184Z,19.40
2023-05-22T05:46:07.092Z,19.44
2023-05-22T05:48:35.177Z,19.42
2023-05-22T05:51:02.515Z,19.50
2023-05-22T05:53:33.949Z,19.50
2023-05-22T05:56:01.210Z,19.50
2023-05-22T05:58:31.087Z,19.50
2023-05-22T06:01:18.547Z,19.56
2023-05-22T06:03:46.034Z,19.54
2023-05-22T06:06:17.082Z,19.50
2023-05-22T06:09:05.689Z,19.54
2023-05-22T06:11:36.368Z,19.60
2023-05-22T06:14:04.579Z,19.60
2023-05-22T06:16:32.088Z,19.60
2023-05-22T06:19:00.001Z,19.70
2023-05-22T06:21:27.361Z,19.70
2023-05-22T06:23:58.229Z,19.76
2023-05-22T06:26:25.738Z,19.80
2023-05-22T06:28:53.758Z,19.80
2023-05-22T06:31:22.317Z,19.80
2023-05-22T06:33:50.466Z,19.80
2023-05-22T06:36:18.665Z,19.86
2023-05-22T06:38:46.080Z,19.90
2023-05-22T06:41:32.118Z,19.90
2023-05-22T06:43:59.567Z,20.00
2023-05-22T06:46:29.268Z,20.10
2023-05-22T06:49:01.563Z,20.10
2023-05-22T06:51:50.589Z,20.20
2023-05-22T06:54:19.027Z,20.30
2023-05-22T06:56:47.192Z,20.40
2023-05-22T06:59:19.962Z,20.40
2023-05-22T07:02:13.196Z,20.50
2023-05-22T07:05:00.370Z,20.50
2023-05-22T07:07:50.600Z,20.50
2023-05-22T07:10:17.906Z,20.56
2023-05-22T07:12:45.765Z,20.60
2023-05-22T07:15:13.962Z,20.70
2023-05-22T07:17:43.154Z,20.70
2023-05-22T07:20:11.666Z,20.78
2023-05-22T07:22:39.095Z,20.80
2023-05-22T07:25:07.017Z,20.80
2023-05-22T07:27:34.333Z,20.80
2023-05-22T07:30:01.761Z,20.82
2023-05-22T07:32:29.815Z,20.86
2023-05-22T07:34:57.451Z,20.90
2023-05-22T07:37:24.988Z,20.90
2023-05-22T07:39:52.127Z,20.98
2023-05-22T07:42:21.187Z,21.08
2023-05-22T07:44:51.757Z,21.10
2023-05-22T07:47:19.747Z,21.20
2023-05-22T07:49:47.282Z,21.20
2023-05-22T07:52:15.578Z,21.20
2023-05-22T07:54:45.186Z,21.22
2023-05-22T07:57:13.631Z,21.20
2023-05-22T07:59:43.652Z,21.30
2023-05-22T08:02:10.827Z,21.30
2023-05-22T08:04:38.173Z,21.40
2023-05-22T08:07:06.078Z,21.40
2023-05-22T08:09:34.429Z,21.50
2023-05-22T08:12:02.746Z,21.50
2023-05-22T08:14:32.958Z,21.60
2023-05-22T08:17:00.298Z,21.64
2023-05-22T08:19:27.572Z,21.70
2023-05-22T08:21:58.508Z,21.72
2023-05-22T08:24:29.949Z,21.80
2023-05-22T08:27:00.970Z,21.80
2023-05-22T08:29:28.934Z,21.90
2023-05-22T08:31:57.716Z,21.90
2023-05-22T08:34:25.275Z,21.90
2023-05-22T08:36:52.482Z,21.90
2023-05-22T08:39:19.779Z,21.96
2023-05-22T08:41:47.100Z,22.00
2023-05-22T08:44:14.372Z,22.00
2023-05-22T08:46:43.689Z,22.00
2023-05-22T08:49:12.339Z,22.02
2023-05-22T08:51:41.905Z,22.10
2023-05-22T08:54:12.252Z,22.22
2023-05-22T08:56:49.204Z,22.40
2023-05-22T08:59:28.403Z,22.60
2023-05-22T09:01:57.511Z,22.70
2023-05-22T09:04:25.080Z,22.70
2023-05-22T09:06:52.764Z,22.70
2023-05-22T09:09:19.873Z,22.80
2023-05-22T09:11:47.154Z,22.86
2023-05-22T09:14:15.510Z,22.80
2023-05-22T09:16:46.950Z,22.80
2023-05-22T09:19:14.854Z,22.90
2023-05-22T09:21:43.890Z,22.90
2023-05-22T09:24:11.289Z,22.90
2023-05-22T09:26:39.516Z,22.90
2023-05-22T09:29:07.710Z,23.00
2023-05-22T09:31:41.566Z,23.14
2023-05-22T09:34:13.655Z,23.20
2023-05-22T09:36:42.025Z,23.20
2023-05-22T09:39:09.500Z,23.20
2023-05-22T09:41:38.911Z,23.30
2023-05-22T09:44:15.829Z,23.30
2023-05-22T09:46:46.820Z,23.40
2023-05-22T09:49:16.396Z,23.50
2023-05-22T09:51:48.661Z,23.50
2023-05-22T09:54:19.841Z,23.50
2023-05-22T09:56:50.608Z,23.50
2023-05-22T09:59:21.864Z,23.58
2023-05-22T10:01:50.099Z,23.60
2023-05-22T10:04:18.525Z,23.70
2023-05-22T10:06:53.301Z,23.70
2023-05-22T10:09:26.267Z,23.66
2023-05-22T10:11:56.643Z,23.70
2023-05-22T10:14:24.162Z,23.80
2023-05-22T10:16:52.041Z,23.80
2023-05-22T10:19:19.287Z,23.80
2023-05-22T10:21:48.064Z,23.90
2023-05-22T10:24:15.234Z,24.00
2023-05-22T10:26:43.318Z,23.90
2023-05-22T10:29:12.229Z,23.80
2023-05-22T10:31:45.449Z,23.72
2023-05-22T10:35:01.846Z,23.70
2023-05-22T10:38:04.393Z,23.60
2023-05-22T10:40:34.346Z,23.60
2023-05-22T10:43:03.766Z,23.50
2023-05-22T10:45:33.688Z,23.40
2023-05-22T10:48:14.012Z,23.40
2023-05-22T10:51:01.918Z,23.32
2023-05-22T10:53:31.922Z,23.40
2023-05-22T10:56:02.788Z,23.40
2023-05-22T10:58:31.321Z,23.40
2023-05-22T11:01:19.153Z,23.30
2023-05-22T11:04:08.483Z,23.28
2023-05-22T11:06:37.888Z,23.20
2023-05-22T11:09:28.416Z,23.20
2023-05-22T11:12:20.967Z,23.20
2023-05-22T11:14:53.305Z,23.20
2023-05-22T11:17:49.694Z,23.30
2023-05-22T11:20:25.064Z,23.40
2023-05-22T11:23:01.732Z,23.40
2023-05-22T11:25:31.986Z,23.50
2023-05-22T11:28:02.230Z,23.50
2023-05-22T11:30:32.144Z,23.60
2023-05-22T11:33:00.727Z,23.62
2023-05-22T11:35:28.677Z,23.62
2023-05-22T11:37:56.146Z,23.60
2023-05-22T11:40:25.409Z,23.60
2023-05-22T11:42:53.444Z,23.50
2023-05-22T11:45:21.132Z,23.50
2023-05-22T11:47:49.241Z,23.48
2023-05-22T11:50:22.799Z,23.40
2023-05-22T11:53:03.776Z,23.40
2023-05-22T11:55:32.891Z,23.40
2023-05-22T11:58:01.925Z,23.40
2023-05-22T12:00:30.805Z,23.40
2023-05-22T12:02:57.984Z,23.30
2023-05-22T12:05:25.193Z,23.26
2023-05-22T12:07:52.554Z,23.20
2023-05-22T12:10:19.740Z,23.20
2023-05-22T12:12:47.585Z,23.10
2023-05-22T12:15:19.722Z,23.06
2023-05-22T12:17:46.800Z,23.00
2023-05-22T12:20:14.137Z,23.00
2023-05-22T12:22:43.054Z,22.94
2023-05-22T12:25:19.618Z,22.92
2023-05-22T12:27:47.097Z,22.90
2023-05-22T12:30:14.855Z,22.90
2023-05-22T12:32:47.997Z,22.90
2023-05-22T12:35:16.545Z,22.80
2023-05-22T12:37:51.299Z,22.80
2023-05-22T12:40:18.875Z,22.80
2023-05-22T12:42:47.750Z,22.80
2023-05-22T12:45:17.201Z,22.88
2023-05-22T12:47:44.293Z,22.90
2023-05-22T12:50:11.483Z,22.90
2023-05-22T12:52:38.623Z,23.00
2023-05-22T12:55:06.710Z,23.00
2023-05-22T12:57:34.185Z,23.06
2023-05-22T13:00:01.231Z,23.04
2023-05-22T13:02:28.259Z,23.08
2023-05-22T13:04:58.899Z,23.08
2023-05-22T13:07:26.064Z,23.04
2023-05-22T13:09:53.389Z,23.08
2023-05-22T13:12:20.580Z,23.10
2023-05-22T13:14:47.675Z,23.10
2023-05-22T13:17:14.698Z,23.10
2023-05-22T13:19:41.724Z,23.00
2023-05-22T13:22:08.753Z,23.10
2023-05-22T13:24:36.020Z,23.04
2023-05-22T13:27:03.254Z,23.08
2023-05-22T13:29:30.366Z,23.00
2023-05-22T13:31:57.362Z,23.08
2023-05-22T13:34:25.137Z,23.10
2023-05-22T13:36:52.446Z,23.10
2023-05-22T13:39:19.714Z,23.10
2023-05-22T13:41:46.768Z,23.18
2023-05-22T13:44:13.915Z,23.20
2023-05-22T13:46:41.200Z,23.20
2023-05-22T13:49:08.452Z,23.20
2023-05-22T13:51:35.578Z,23.20
2023-05-22T13:54:02.993Z,23.20
2023-05-22T13:56:30.726Z,23.20
2023-05-22T13:58:57.947Z,23.28
2023-05-22T14:01:25.125Z,23.32
2023-05-22T14:03:52.231Z,23.40
2023-05-22T14:06:19.389Z,23.40
2023-05-22T14:08:46.348Z,23.40
2023-05-22T14:11:13.459Z,23.40
2023-05-22T14:13:40.877Z,23.40
2023-05-22T14:16:08.297Z,23.30
2023-05-22T14:18:35.809Z,23.30
2023-05-22T14:21:05.002Z,23.30
2023-05-22T14:23:32.173Z,23.30
2023-05-22T14:25:59.384Z,23.24
2023-05-22T14:28:26.523Z,23.20
2023-05-22T14:30:55.563Z,23.20
2023-05-22T14:33:22.689Z,23.20
2023-05-22T14:35:51.132Z,23.20
2023-05-22T14:38:18.366Z,23.20
2023-05-22T14:40:45.570Z,23.20
2023-05-22T14:43:12.713Z,23.18
2023-05-22T14:45:40.197Z,23.12
2023-05-22T14:48:10.956Z,23.10
2023-05-22T14:50:38.464Z,23.10
2023-05-22T14:53:05.757Z,23.10
2023-05-22T14:55:32.867Z,23.10
2023-05-22T14:58:00.227Z,23.10
2023-05-22T15:00:28.408Z,23.10
2023-05-22T15:02:55.715Z,23.16
2023-05-22T15:05:23.200Z,23.20
2023-05-22T15:07:51.500Z,23.20
2023-05-22T15:10:19.750Z,23.20
2023-05-22T15:12:47.023Z,23.20
2023-05-22T15:15:14.176Z,23.26
2023-05-22T15:17:42.875Z,23.24
2023-05-22T15:20:11.641Z,23.24
2023-05-22T15:22:39.588Z,23.28
2023-05-22T15:25:08.865Z,23.30
2023-05-22T15:27:36.120Z,23.26
2023-05-22T15:30:03.922Z,23.30
2023-05-22T15:32:32.351Z,23.30
2023-05-22T15:34:59.601Z,23.30
2023-05-22T15:37:27.458Z,23.30
2023-05-22T15:39:54.708Z,23.24
2023-05-22T15:42:22.048Z,23.24
2023-05-22T15:44:49.186Z,23.26
2023-05-22T15:47:16.403Z,23.20
2023-05-22T15:49:43.520Z,23.20
2023-05-22T15:52:10.609Z,23.20
2023-05-22T15:54:37.682Z,23.20
2023-05-22T15:57:05.054Z,23.20
2023-05-22T15:59:32.112Z,23.18
2023-05-22T16:01:59.196Z,23.10
2023-05-22T16:04:26.372Z,23.10
2023-05-22T16:06:53.621Z,23.10
2023-05-22T16:09:20.853Z,23.10
2023-05-22T16:11:48.643Z,23.10
2023-05-22T16:14:15.730Z,23.10
2023-05-22T16:16:43.414Z,23.00
2023-05-22T16:19:11.034Z,23.00
2023-05-22T16:21:38.336Z,23.00
2023-05-22T16:24:06.595Z,23.00
2023-05-22T16:26:33.783Z,23.00
2023-05-22T16:29:00.850Z,22.92
2023-05-22T16:31:28.327Z,22.92
2023-05-22T16:33:55.552Z,22.90
2023-05-22T16:36:25.180Z,22.90
2023-05-22T16:38:54.347Z,22.90
2023-05-22T16:41:22.466Z,22.88
2023-05-22T16:43:50.078Z,22.82
2023-05-22T16:46:17.883Z,22.80
2023-05-22T16:48:45.056Z,22.80
2023-05-22T16:51:12.081Z,22.80
2023-05-22T16:53:43.312Z,22.80
2023-05-22T16:56:10.543Z,22.80
2023-05-22T16:58:38.339Z,22.80
2023-05-22T17:01:05.936Z,22.80
2023-05-22T17:03:33.802Z,22.80
2023-05-22T17:06:02.630Z,22.80
2023-05-22T17:08:30.253Z,22.76
2023-05-22T17:10:57.520Z,22.74
2023-05-22T17:13:24.595Z,22.70
2023-05-22T17:15:51.745Z,22.70
2023-05-22T17:18:20.371Z,22.70
2023-05-22T17:20:48.927Z,22.70
2023-05-22T17:23:16.738Z,22.70
2023-05-22T17:25:46.815Z,22.66
2023-05-22T17:28:14.511Z,22.60
2023-05-22T17:30:42.766Z,22.60
2023-05-22T17:33:13.527Z,22.60
2023-05-22T17:35:40.701Z,22.60
2023-05-22T17:38:08.140Z,22.58
2023-05-22T17:40:44.883Z,22.50
2023-05-22T17:43:23.076Z,22.50
2023-05-22T17:45:56.307Z,22.50
2023-05-22T17:48:26.492Z,22.50
2023-05-22T17:50:53.652Z,22.48
2023-05-22T17:53:21.389Z,22.40
2023-05-22T17:55:50.465Z,22.40
2023-05-22T17:58:18.989Z,22.40
2023-05-22T18:00:48.453Z,22.40
2023-05-22T18:03:19.719Z,22.32
2023-05-22T18:05:48.378Z,22.30
2023-05-22T18:08:16.358Z,22.30
2023-05-22T18:10:44.042Z,22.30
2023-05-22T18:13:11.161Z,22.30
2023-05-22T18:15:38.379Z,22.24
2023-05-22T18:18:05.830Z,22.22
2023-05-22T18:20:33.128Z,22.20
2023-05-22T18:23:00.321Z,22.20
2023-05-22T18:25:27.640Z,22.20
2023-05-22T18:27:55.032Z,22.12
2023-05-22T18:30:22.097Z,22.10
2023-05-22T18:32:49.266Z,22.10
2023-05-22T18:35:16.754Z,22.10
2023-05-22T18:37:44.221Z,22.08
2023-05-22T18:40:11.983Z,22.02
2023-05-22T18:42:39.111Z,22.00
2023-05-22T18:45:07.193Z,22.00
2023-05-22T18:47:34.417Z,22.00
2023-05-22T18:50:02.327Z,22.00
2023-05-22T18:52:30.411Z,22.00
2023-05-22T18:54:57.602Z,22.00
2023-05-22T18:57:25.245Z,22.00
2023-05-22T18:59:52.738Z,22.00
2023-05-22T19:02:21.457Z,22.00
2023-05-22T19:04:50.039Z,21.90
2023-05-22T19:07:17.274Z,21.90
2023-05-22T19:09:44.453Z,21.90
2023-05-22T19:12:11.667Z,21.90
2023-05-22T19:14:38.772Z,21.80
2023-05-22T19:17:06.113Z,21.70
2023-05-22T19:19:33.558Z,21.70
2023-05-22T19:22:00.827Z,21.60
2023-05-22T19:24:28.016Z,21.50
2023-05-22T19:26:58.143Z,21.50
2023-05-22T19:29:25.264Z,21.40
2023-05-22T19:31:52.436Z,21.40
2023-05-22T19:34:19.518Z,21.30
2023-05-22T19:36:46.710Z,21.20
2023-05-22T19:39:13.818Z,21.20
2023-05-22T19:41:41.042Z,21.20
2023-05-22T19:44:08.333Z,21.20
2023-05-22T19:46:35.451Z,21.10
2023-05-22T19:49:02.599Z,21.10
2023-05-22T19:51:30.596Z,21.10
2023-05-22T19:53:57.768Z,21.10
2023-05-22T19:56:25.622Z,21.10
2023-05-22T19:58:52.691Z,21.10
2023-05-22T20:01:19.879Z,21.10
2023-05-22T20:03:47.136Z,21.10
2023-05-22T20:06:14.309Z,21.10
2023-05-22T20:08:41.416Z,21.10
2023-05-22T20:11:08.573Z,21.10
2023-05-22T20:13:35.831Z,21.10
2023-05-22T20:16:03.326Z,21.10
2023-05-22T20:18:33.222Z,21.10
2023-05-22T20:21:00.468Z,21.10
2023-05-22T20:23:27.611Z,21.10
2023-05-22T20:25:54.968Z,21.10
2023-05-22T20:28:22.162Z,21.10
2023-05-22T20:30:49.642Z,21.04
2023-05-22T20:33:17.164Z,21.00
2023-05-22T20:35:44.455Z,21.00
2023-05-22T20:38:13.785Z,21.00
2023-05-22T20:40:46.064Z,21.00
2023-05-22T20:43:13.658Z,20.96
2023-05-22T20:45:44.971Z,20.94
2023-05-22T20:48:12.939Z,20.90
2023-05-22T20:50:41.754Z,20.90
2023-05-22T20:53:08.855Z,20.90
2023-05-22T20:55:36.672Z,20.90
2023-05-22T20:58:03.893Z,20.90
2023-05-22T21:00:31.107Z,20.82
2023-05-22T21:03:00.788Z,20.82
2023-05-22T21:05:28.112Z,20.80
2023-05-22T21:07:55.300Z,20.80
2023-05-22T21:10:22.423Z,20.80
2023-05-22T21:12:49.592Z,20.72
2023-05-22T21:15:16.791Z,20.70
2023-05-22T21:17:44.069Z,20.70
2023-05-22T21:20:11.417Z,20.70
2023-05-22T21:22:38.719Z,20.70
2023-05-22T21:25:06.340Z,20.68
2023-05-22T21:27:33.535Z,20.68
2023-05-22T21:30:00.659Z,20.60
2023-05-22T21:32:27.852Z,20.60
2023-05-22T21:34:54.967Z,20.50
2023-05-22T21:37:22.049Z,20.50
2023-05-22T21:39:49.700Z,20.50
2023-05-22T21:42:17.512Z,20.50
2023-05-22T21:44:44.540Z,20.40
2023-05-22T21:47:11.901Z,20.40
2023-05-22T21:49:39.735Z,20.40
2023-05-22T21:52:07.178Z,20.30
2023-05-22T21:54:34.297Z,20.30
2023-05-22T21:57:01.475Z,20.30
2023-05-22T21:59:28.644Z,20.20
2023-05-22T22:01:55.784Z,20.14
2023-05-22T22:04:23.001Z,20.12
2023-05-22T22:06:50.134Z,20.10
2023-05-22T22:09:17.136Z,20.10
2023-05-22T22:11:44.191Z,20.10
2023-05-22T22:14:11.260Z,20.10
2023-05-22T22:16:40.020Z,20.00
2023-05-22T22:19:07.222Z,19.90
2023-05-22T22:21:34.629Z,19.80
2023-05-22T22:24:01.813Z,19.72
2023-05-22T22:26:30.597Z,19.70
2023-05-22T22:28:57.691Z,19.70
2023-05-22T22:31:24.977Z,19.70
2023-05-22T22:33:52.087Z,19.70
2023-05-22T22:36:19.174Z,19.66
2023-05-22T22:38:46.264Z,19.66
2023-05-22T22:41:13.328Z,19.68
2023-05-22T22:43:40.566Z,19.60
2023-05-22T22:46:08.415Z,19.56
2023-05-22T22:48:35.687Z,19.40
2023-05-22T22:51:04.302Z,19.30
2023-05-22T22:53:31.415Z,19.30
2023-05-22T22:55:58.777Z,19.24
2023-05-22T22:58:25.809Z,19.30
2023-05-22T23:00:53.139Z,19.30
2023-05-22T23:03:20.294Z,19.20
2023-05-22T23:05:47.653Z,19.14
2023-05-22T23:08:14.984Z,19.00
2023-05-22T23:10:42.062Z,19.00
2023-05-22T23:13:09.238Z,18.90
2023-05-22T23:15:36.416Z,18.94
2023-05-22T23:18:03.801Z,19.00
2023-05-22T23:20:31.075Z,18.90
2023-05-22T23:22:58.137Z,18.90
2023-05-22T23:25:25.391Z,18.88
2023-05-22T23:27:52.520Z,18.90
2023-05-22T23:30:19.608Z,18.90
2023-05-22T23:32:46.659Z,18.88
2023-05-22T23:35:13.843Z,18.80
2023-05-22T23:37:41.001Z,18.80
2023-05-22T23:40:09.185Z,18.80
2023-05-22T23:42:36.903Z,18.80
2023-05-22T23:45:04.405Z,18.70
2023-05-22T23:47:31.493Z,18.58
2023-05-22T23:49:59.529Z,18.50
2023-05-22T23:52:27.057Z,18.42
2023-05-22T23:54:54.138Z,18.40
2023-05-22T23:57:21.183Z,18.40
2023-05-22T23:59:48.360Z,18.30
